Time;durP1;ratioP1;P1;durP2;ratioP2;P2;SDS_P1;SDS_P2;PMS_P1;PMS_P2;Temp;Humidity;BMP_temperature;BMP_pressure;BME280_temperature;BME280_humidity;BME280_pressure;Samples;Min_cycle;Max_cycle;Signal;HPM_P1;HPM_P2
2022/05/05 00:01:36;;;;;;;1.63;1.63;;;9.90;96.30;;;;;;6321554;28;20235;-64
2022/05/05 00:04:41;;;;;;;2.88;1.42;;;9.90;96.20;;;;;;6322587;28;20230;-64
2022/05/05 00:07:47;;;;;;;3.35;1.73;;;9.80;96.00;;;;;;6321108;28;20234;-65
2022/05/05 00:14:28;;;;;;;4.88;1.88;;;9.80;96.20;;;;;;6322712;28;20231;-64
2022/05/05 00:17:35;;;;;;;2.00;1.48;;;9.70;96.40;;;;;;6322284;28;20226;-65
2022/05/05 00:20:42;;;;;;;1.58;1.48;;;9.80;96.50;;;;;;6323130;28;20207;-65
2022/05/05 00:23:47;;;;;;;2.85;1.73;;;9.70;96.60;;;;;;6322346;28;20583;-65
2022/05/05 00:26:52;;;;;;;1.40;1.30;;;9.80;96.70;;;;;;6322982;28;20312;-65
2022/05/05 00:29:58;;;;;;;5.13;1.60;;;9.80;96.50;;;;;;6322471;28;20234;-65
2022/05/05 00:33:05;;;;;;;3.08;1.50;;;9.70;96.90;;;;;;6322698;28;20226;-65
2022/05/05 00:36:12;;;;;;;1.63;1.40;;;9.70;97.00;;;;;;6322851;28;20217;-65
2022/05/05 00:39:17;;;;;;;4.45;1.65;;;9.80;97.00;;;;;;6320810;28;20601;-65
2022/05/05 00:42:22;;;;;;;4.05;1.60;;;9.90;96.80;;;;;;6321489;27;20356;-64
2022/05/05 00:45:28;;;;;;;1.98;1.50;;;9.80;97.20;;;;;;6322296;28;20235;-65
2022/05/05 00:48:35;;;;;;;3.40;1.52;;;9.80;97.20;;;;;;6322009;27;20237;-65
2022/05/05 00:51:41;;;;;;;2.13;1.33;;;9.90;97.10;;;;;;6322072;28;20207;-65
2022/05/05 00:54:46;;;;;;;1.60;1.40;;;9.90;97.30;;;;;;6320308;28;20245;-65
2022/05/05 00:57:54;;;;;;;1.60;1.50;;;9.80;97.80;;;;;;6319961;27;20222;-65
2022/05/05 01:01:00;;;;;;;2.47;1.77;;;9.80;97.70;;;;;;6341234;28;20229;-66
2022/05/05 01:04:08;;;;;;;1.95;1.80;;;9.80;97.70;;;;;;6346646;28;20241;-66
2022/05/05 01:07:14;;;;;;;1.73;1.63;;;9.80;97.90;;;;;;6346076;28;20690;-65
2022/05/05 01:10:19;;;;;;;1.98;1.77;;;9.80;97.90;;;;;;6338636;28;20620;-65
2022/05/05 01:13:27;;;;;;;7.63;1.60;;;9.70;98.20;;;;;;6321173;28;20570;-65
2022/05/05 01:16:32;;;;;;;3.75;1.92;;;9.80;98.10;;;;;;6303400;28;20202;-65
2022/05/05 01:19:39;;;;;;;3.40;1.60;;;9.80;98.60;;;;;;6321406;28;20334;-65
2022/05/05 01:22:46;;;;;;;1.60;1.50;;;9.80;98.30;;;;;;6321263;28;20238;-65
2022/05/05 01:29:18;;;;;;;1.80;1.80;;;9.90;98.40;;;;;;6321302;28;20226;-65
2022/05/05 01:32:23;;;;;;;4.60;1.88;;;9.90;98.50;;;;;;6321356;28;20237;-65
2022/05/05 01:35:29;;;;;;;2.15;1.58;;;9.90;98.30;;;;;;6321741;28;20210;-64
2022/05/05 01:38:40;;;;;;;3.10;1.63;;;10.00;98.30;;;;;;6320994;28;20386;-64
2022/05/05 01:41:47;;;;;;;4.85;1.70;;;10.00;98.10;;;;;;6320964;28;20209;-64
2022/05/05 01:44:52;;;;;;;4.38;2.00;;;10.00;98.20;;;;;;6321056;28;20238;-65
2022/05/05 01:47:57;;;;;;;4.43;1.83;;;10.00;98.20;;;;;;6320454;28;20575;-64
2022/05/05 01:51:04;;;;;;;2.92;1.60;;;10.00;98.40;;;;;;6325472;28;20202;-66
2022/05/05 01:54:14;;;;;;;1.85;1.75;;;9.80;98.70;;;;;;6326264;28;20237;-66
2022/05/05 01:57:23;;;;;;;3.90;1.80;;;9.80;99.00;;;;;;6325294;28;20226;-64
2022/05/05 02:00:31;;;;;;;2.72;1.80;;;9.80;99.00;;;;;;6326360;28;20514;-67
2022/05/05 02:03:37;;;;;;;4.35;1.90;;;9.80;98.90;;;;;;6326021;28;20234;-65
2022/05/05 02:06:42;;;;;;;4.53;1.95;;;9.90;98.90;;;;;;6326272;28;20223;-65
2022/05/05 02:09:48;;;;;;;2.97;1.70;;;9.90;98.80;;;;;;6329062;28;20269;-64
2022/05/05 02:12:57;;;;;;;8.13;1.95;;;9.90;98.70;;;;;;6350944;28;20667;-64
2022/05/05 02:16:03;;;;;;;5.60;2.25;;;10.00;98.70;;;;;;6351582;28;20210;-65
2022/05/05 02:19:09;;;;;;;4.15;2.00;;;10.00;98.70;;;;;;6351137;28;20221;-66
2022/05/05 02:22:14;;;;;;;3.75;1.90;;;10.00;98.80;;;;;;6351085;28;20198;-65
2022/05/05 02:25:21;;;;;;;9.20;1.80;;;10.00;98.70;;;;;;6351480;28;20198;-65
2022/05/05 02:28:27;;;;;;;6.13;1.92;;;10.00;98.70;;;;;;6351011;28;20240;-64
2022/05/05 02:31:32;;;;;;;5.22;2.65;;;10.00;98.70;;;;;;6355051;28;20263;-64
2022/05/05 02:34:37;;;;;;;2.10;1.98;;;9.90;99.00;;;;;;6352853;28;20234;-64
2022/05/05 02:41:07;;;;;;;4.15;2.17;;;10.00;98.90;;;;;;6356071;28;20203;-64
2022/05/05 02:44:15;;;;;;;3.35;1.60;;;10.00;98.70;;;;;;6357255;28;20236;-65
2022/05/05 02:47:20;;;;;;;5.60;2.08;;;9.90;98.90;;;;;;6356448;28;20307;-65
2022/05/05 02:50:26;;;;;;;2.65;1.80;;;10.00;98.80;;;;;;6355828;28;20202;-65
2022/05/05 02:56:55;;;;;;;6.93;2.15;;;9.90;98.90;;;;;;6349996;28;20202;-66
2022/05/05 03:00:00;;;;;;;2.45;1.77;;;10.00;98.70;;;;;;6348971;28;20234;-64
2022/05/05 03:03:06;;;;;;;2.28;1.88;;;10.00;99.30;;;;;;6325619;28;20555;-66
2022/05/05 03:06:13;;;;;;;5.03;2.38;;;10.00;99.00;;;;;;6331739;28;20593;-65
2022/05/05 03:09:18;;;;;;;2.45;2.08;;;9.90;99.30;;;;;;6348986;28;20343;-65
2022/05/05 03:12:25;;;;;;;2.05;1.95;;;9.90;99.40;;;;;;6332477;28;20271;-65
2022/05/05 03:15:32;;;;;;;3.42;2.40;;;10.00;99.10;;;;;;6323614;28;20234;-65
2022/05/05 03:18:40;;;;;;;6.82;1.98;;;10.00;99.30;;;;;;6323670;28;20230;-64
2022/05/05 03:21:45;;;;;;;2.28;2.17;;;10.00;99.40;;;;;;6324297;28;20206;-65
2022/05/05 03:24:51;;;;;;;3.97;2.35;;;10.00;99.30;;;;;;6323739;28;20230;-66
2022/05/05 03:27:57;;;;;;;3.65;2.30;;;10.00;99.60;;;;;;6305308;28;20578;-65
2022/05/05 03:31:03;;;;;;;3.15;2.30;;;10.10;99.90;;;;;;6323973;28;20205;-65
2022/05/05 03:34:09;;;;;;;5.07;2.50;;;10.10;99.90;;;;;;6323799;28;20227;-65
2022/05/05 03:37:15;;;;;;;4.82;2.30;;;10.00;99.90;;;;;;6334209;28;20212;-64
2022/05/05 03:40:20;;;;;;;2.58;2.33;;;10.10;99.90;;;;;;6348431;28;20236;-64
2022/05/05 03:43:28;;;;;;;4.10;2.40;;;10.10;99.90;;;;;;6348038;28;20218;-65
2022/05/05 03:46:33;;;;;;;2.42;2.30;;;10.20;99.80;;;;;;6348840;28;20198;-67
2022/05/05 03:49:38;;;;;;;4.03;2.10;;;10.20;99.90;;;;;;6348363;28;20241;-65
2022/05/05 03:52:44;;;;;;;3.50;2.50;;;10.30;99.60;;;;;;6330589;28;20209;-65
2022/05/05 03:55:49;;;;;;;8.35;3.38;;;10.30;99.80;;;;;;6348227;28;20206;-65
2022/05/05 03:58:56;;;;;;;4.10;2.67;;;10.40;99.70;;;;;;6347813;28;20234;-65
2022/05/05 04:02:01;;;;;;;7.90;2.70;;;10.40;99.70;;;;;;6348759;28;20206;-64
2022/05/05 04:05:08;;;;;;;7.97;2.85;;;10.50;99.60;;;;;;6347874;28;20686;-64
2022/05/05 04:08:16;;;;;;;9.80;3.42;;;10.50;99.90;;;;;;6347418;28;20233;-65
2022/05/05 04:11:21;;;;;;;5.30;2.63;;;10.60;99.90;;;;;;6337636;28;20191;-65
2022/05/05 04:14:28;;;;;;;9.02;2.90;;;10.60;99.60;;;;;;6338586;28;20229;-65
2022/05/05 04:17:33;;;;;;;5.75;2.88;;;10.70;99.40;;;;;;6323567;28;20643;-66
2022/05/05 04:20:38;;;;;;;3.30;2.33;;;10.80;99.30;;;;;;6322322;28;20246;-64
2022/05/05 04:23:44;;;;;;;2.90;2.70;;;10.80;99.30;;;;;;6321830;28;20688;-64
2022/05/05 04:26:49;;;;;;;3.67;2.60;;;10.90;99.10;;;;;;6322824;28;20199;-64
2022/05/05 04:29:56;;;;;;;3.28;2.70;;;10.90;99.20;;;;;;6322277;28;20239;-64
2022/05/05 04:33:02;;;;;;;6.53;2.47;;;10.90;99.10;;;;;;6322061;28;20645;-65
2022/05/05 04:36:08;;;;;;;13.50;2.90;;;10.90;99.20;;;;;;6322779;28;20203;-66
2022/05/05 04:39:14;;;;;;;6.18;2.80;;;11.00;99.20;;;;;;6322245;28;20711;-65
2022/05/05 04:42:19;;;;;;;4.25;3.00;;;10.90;99.40;;;;;;6322400;28;20504;-66
2022/05/05 04:45:26;;;;;;;6.05;3.10;;;11.00;99.40;;;;;;6321747;28;20596;-64
2022/05/05 04:48:31;;;;;;;11.00;3.28;;;11.00;99.40;;;;;;6303546;28;20230;-65
2022/05/05 04:51:37;;;;;;;9.63;3.53;;;11.00;99.70;;;;;;6322089;28;20198;-66
2022/05/05 04:54:43;;;;;;;10.10;3.28;;;11.00;99.60;;;;;;6322006;28;20230;-64
2022/05/05 04:57:48;;;;;;;7.32;2.97;;;11.10;99.50;;;;;;6321382;28;20333;-64
2022/05/05 05:00:55;;;;;;;7.55;2.72;;;11.20;99.30;;;;;;6322500;28;20598;-65
2022/05/05 05:04:02;;;;;;;4.40;2.90;;;11.20;99.30;;;;;;6321421;28;20595;-65
2022/05/05 05:07:07;;;;;;;4.88;2.60;;;11.10;99.60;;;;;;6322100;28;20213;-67
2022/05/05 05:10:13;;;;;;;4.13;2.90;;;11.20;99.30;;;;;;6322020;28;20229;-66
2022/05/05 05:13:19;;;;;;;4.55;3.17;;;11.20;99.30;;;;;;6347100;28;20236;-65
2022/05/05 05:16:26;;;;;;;3.05;2.65;;;11.30;99.10;;;;;;6347684;28;20202;-65
2022/05/05 05:19:45;;;;;;;8.48;3.28;;;11.40;99.00;;;;;;6347773;28;20234;-65
2022/05/05 05:22:51;;;;;;;6.82;3.30;;;11.40;99.10;;;;;;6346661;28;20206;-65
2022/05/05 05:25:56;;;;;;;6.70;2.78;;;11.50;98.80;;;;;;6346682;28;20237;-65
2022/05/05 05:29:01;;;;;;;17.15;3.00;;;11.50;98.50;;;;;;6346572;28;20283;-64
2022/05/05 05:32:09;;;;;;;5.30;3.00;;;11.50;98.50;;;;;;6346940;28;20214;-66
2022/05/05 05:35:14;;;;;;;7.55;3.30;;;11.40;98.30;;;;;;6346464;28;20229;-65
2022/05/05 05:38:20;;;;;;;7.40;3.10;;;11.50;98.20;;;;;;6346609;28;20237;-65
2022/05/05 05:41:25;;;;;;;5.32;2.97;;;11.50;98.20;;;;;;6328625;28;20205;-66
2022/05/05 05:44:31;;;;;;;8.30;2.70;;;11.50;98.30;;;;;;6346248;28;20229;-66
2022/05/05 05:47:38;;;;;;;10.80;3.42;;;11.50;98.10;;;;;;6346831;28;20212;-65
2022/05/05 05:50:43;;;;;;;9.52;2.90;;;11.70;97.70;;;;;;6346277;28;20230;-66
2022/05/05 05:53:49;;;;;;;12.32;2.92;;;11.80;97.80;;;;;;6346398;28;20226;-66
2022/05/05 05:56:55;;;;;;;5.13;3.08;;;11.90;97.10;;;;;;6347157;28;20206;-65
2022/05/05 06:00:00;;;;;;;9.90;3.60;;;11.90;96.90;;;;;;6346516;28;20242;-65
2022/05/05 06:06:43;;;;;;;7.55;3.25;;;12.10;96.40;;;;;;6346538;28;20209;-66
2022/05/05 06:09:49;;;;;;;4.70;3.10;;;12.10;95.80;;;;;;6346344;28;20549;-66
2022/05/05 06:12:54;;;;;;;7.45;2.78;;;12.10;95.50;;;;;;6322547;28;20667;-65
2022/05/05 06:16:00;;;;;;;9.85;2.72;;;11.90;95.60;;;;;;6321486;28;20229;-65
2022/05/05 06:19:06;;;;;;;8.23;2.83;;;12.00;95.30;;;;;;6320447;28;20234;-66
2022/05/05 06:22:12;;;;;;;2.70;2.50;;;12.00;95.40;;;;;;6321224;28;20551;-65
2022/05/05 06:25:19;;;;;;;6.28;2.97;;;12.00;95.10;;;;;;6321106;28;20657;-65
2022/05/05 06:28:24;;;;;;;10.45;2.55;;;12.00;95.10;;;;;;6303235;28;20687;-65
2022/05/05 06:31:30;;;;;;;4.60;3.08;;;12.10;95.10;;;;;;6321481;28;20226;-66
2022/05/05 06:34:36;;;;;;;4.90;2.85;;;12.10;95.00;;;;;;6302580;28;20244;-66
2022/05/05 06:37:42;;;;;;;5.78;2.97;;;12.20;94.80;;;;;;6324796;28;20207;-65
2022/05/05 06:40:47;;;;;;;7.32;2.90;;;12.20;94.80;;;;;;6324675;28;20211;-66
2022/05/05 06:43:52;;;;;;;7.47;2.70;;;12.30;94.90;;;;;;6325363;28;20230;-66
2022/05/05 06:46:59;;;;;;;3.55;2.67;;;12.40;94.60;;;;;;6325346;28;20206;-66
2022/05/05 06:50:08;;;;;;;5.03;2.63;;;12.50;94.40;;;;;;6324948;28;20238;-66
2022/05/05 06:53:15;;;;;;;9.38;3.40;;;12.60;94.30;;;;;;6324887;28;20229;-66
2022/05/05 06:56:20;;;;;;;6.47;2.53;;;12.60;93.70;;;;;;6325209;28;20198;-66
2022/05/05 06:59:26;;;;;;;4.70;2.45;;;12.60;93.30;;;;;;6324359;28;20238;-65
2022/05/05 07:02:31;;;;;;;8.77;3.00;;;12.70;93.10;;;;;;6325492;28;20206;-65
2022/05/05 07:05:38;;;;;;;4.15;2.72;;;12.80;93.10;;;;;;6324596;28;20582;-65
2022/05/05 07:12:07;;;;;;;8.60;2.78;;;12.80;93.00;;;;;;6324973;28;20222;-64
2022/05/05 07:15:13;;;;;;;11.07;2.97;;;12.80;93.00;;;;;;6324542;28;20231;-66
2022/05/05 07:18:20;;;;;;;6.68;2.88;;;12.90;93.80;;;;;;6324318;28;20576;-66
2022/05/05 07:21:27;;;;;;;7.70;2.92;;;13.00;93.30;;;;;;6324797;28;20206;-64
2022/05/05 07:24:32;;;;;;;5.60;2.53;;;13.00;92.80;;;;;;6324253;28;20238;-65
2022/05/05 07:27:39;;;;;;;6.03;2.72;;;13.10;91.80;;;;;;6324719;28;20637;-66
2022/05/05 07:30:45;;;;;;;8.75;2.75;;;13.10;91.70;;;;;;6324183;28;20598;-65
2022/05/05 07:33:50;;;;;;;6.43;2.72;;;13.30;91.40;;;;;;6324229;28;20234;-65
2022/05/05 07:36:57;;;;;;;2.67;2.47;;;13.30;91.20;;;;;;6324320;28;20672;-66
2022/05/05 07:40:03;;;;;;;10.68;3.25;;;13.30;90.90;;;;;;6323701;28;20222;-66
2022/05/05 07:43:10;;;;;;;4.20;2.47;;;13.40;90.30;;;;;;6324681;28;20233;-65
2022/05/05 07:46:17;;;;;;;7.13;2.70;;;13.50;89.00;;;;;;6329737;28;20203;-63
2022/05/05 07:49:22;;;;;;;6.47;2.45;;;13.60;88.20;;;;;;6332367;28;20607;-64
2022/05/05 07:52:29;;;;;;;7.05;2.60;;;13.60;88.00;;;;;;6328892;28;20222;-65
2022/05/05 07:55:34;;;;;;;5.82;2.67;;;13.70;88.10;;;;;;6323601;28;20253;-66
2022/05/05 07:58:40;;;;;;;3.53;2.63;;;13.70;88.00;;;;;;6323270;28;20240;-67
2022/05/05 08:01:48;;;;;;;10.05;2.30;;;13.70;87.20;;;;;;6323898;28;20210;-66
2022/05/05 08:04:54;;;;;;;5.30;2.70;;;13.70;87.70;;;;;;6322747;28;20249;-66
2022/05/05 08:08:01;;;;;;;4.20;2.30;;;13.70;86.70;;;;;;6322718;28;20195;-67
2022/05/05 08:11:06;;;;;;;8.40;2.85;;;13.80;86.60;;;;;;6331998;28;20220;-66
2022/05/05 08:14:12;;;;;;;8.18;2.80;;;13.90;86.50;;;;;;6348646;28;20248;-65
2022/05/05 08:17:18;;;;;;;6.00;2.53;;;13.90;85.60;;;;;;6348765;28;20208;-66
2022/05/05 08:20:23;;;;;;;2.38;2.13;;;14.00;85.50;;;;;;6348452;28;20229;-65
2022/05/05 08:23:30;;;;;;;6.82;2.28;;;14.00;84.60;;;;;;6352462;28;20301;-67
2022/05/05 08:30:12;;;;;;;5.60;2.88;;;14.00;84.30;;;;;;6270421;28;20236;-66
2022/05/05 08:33:18;;;;;;;4.38;2.50;;;14.10;83.40;;;;;;6347617;28;20599;-67
2022/05/05 08:36:23;;;;;;;7.13;2.60;;;14.10;82.90;;;;;;6347957;28;20213;-66
2022/05/05 08:39:30;;;;;;;3.72;2.50;;;14.30;83.80;;;;;;6347754;28;20701;-66
2022/05/05 08:42:37;;;;;;;8.02;2.58;;;14.40;80.30;;;;;;6347957;28;20214;-65
2022/05/05 08:45:43;;;;;;;6.13;2.80;;;14.50;80.50;;;;;;6347338;28;20259;-67
2022/05/05 08:48:50;;;;;;;7.45;2.85;;;14.60;79.50;;;;;;6347809;28;20225;-67
2022/05/05 08:51:56;;;;;;;2.78;2.53;;;14.60;79.90;;;;;;6348134;28;20228;-65
2022/05/05 08:55:03;;;;;;;4.50;2.55;;;14.70;77.60;;;;;;6346868;28;20229;-65
2022/05/05 08:58:10;;;;;;;10.77;3.22;;;14.90;76.50;;;;;;6346726;28;20226;-65
2022/05/05 09:01:16;;;;;;;17.02;3.42;;;15.10;75.60;;;;;;6321079;28;20238;-66
2022/05/05 09:04:21;;;;;;;6.25;2.60;;;15.20;73.00;;;;;;6321542;28;20236;-66
2022/05/05 09:07:48;;;;;;;4.57;3.03;;;15.20;72.30;;;;;;6322418;28;20198;-66
2022/05/05 09:10:55;;;;;;;5.25;2.38;;;15.20;71.70;;;;;;6315092;28;20207;-65
2022/05/05 09:14:08;;;;;;;7.35;2.38;;;15.30;71.50;;;;;;6296950;28;20231;-66
2022/05/05 09:17:16;;;;;;;7.40;3.08;;;15.50;70.00;;;;;;6296740;28;20210;-66
2022/05/05 09:20:36;;;;;;;2.92;2.70;;;15.60;69.60;;;;;;6296930;28;20594;-65
2022/05/05 09:27:23;;;;;;;7.93;2.83;;;15.50;67.50;;;;;;6296323;28;20668;-65
2022/05/05 09:30:30;;;;;;;11.20;3.35;;;15.50;65.80;;;;;;6296865;28;20242;-65
2022/05/05 09:33:44;;;;;;;2.67;2.30;;;15.50;66.60;;;;;;6296127;28;20238;-66
2022/05/05 09:36:49;;;;;;;25.48;2.85;;;15.50;66.80;;;;;;6297367;28;20204;-66
2022/05/05 09:39:56;;;;;;;6.38;2.38;;;15.60;66.30;;;;;;6297017;28;20230;-65
2022/05/05 09:43:03;;;;;;;8.68;2.38;;;15.60;65.90;;;;;;6296611;28;20207;-66
2022/05/05 09:46:31;;;;;;;6.07;2.65;;;15.60;63.50;;;;;;6297474;28;20203;-65
2022/05/05 09:49:37;;;;;;;7.32;2.75;;;15.60;63.70;;;;;;6296835;28;20226;-66
2022/05/05 09:59:35;;;;;;;8.05;2.40;;;15.80;62.60;;;;;;6302357;28;20283;-65
2022/05/05 10:06:06;;;;;;;9.05;3.25;;;16.00;62.10;;;;;;6302610;28;20218;-66
2022/05/05 10:09:13;;;;;;;8.73;2.95;;;16.10;61.00;;;;;;6302474;28;20526;-66
2022/05/05 10:12:19;;;;;;;4.07;2.53;;;16.20;60.10;;;;;;6344523;28;20643;-66
2022/05/05 10:15:26;;;;;;;6.40;2.67;;;16.30;59.60;;;;;;6350576;28;20226;-65
2022/05/05 10:18:52;;;;;;;12.85;2.75;;;16.30;59.10;;;;;;6350799;28;20229;-67
2022/05/05 10:22:04;;;;;;;6.50;2.22;;;16.30;58.90;;;;;;6333113;28;20281;-68
2022/05/05 10:25:15;;;;;;;5.72;2.25;;;16.30;58.50;;;;;;6350979;28;20229;-66
2022/05/05 10:28:42;;;;;;;8.65;2.55;;;16.40;58.20;;;;;;6353722;28;20233;-65
2022/05/05 10:31:49;;;;;;;3.88;2.40;;;16.50;58.00;;;;;;6336305;28;20198;-65
2022/05/05 10:35:07;;;;;;;8.43;2.65;;;16.50;58.20;;;;;;6355324;28;20230;-66
2022/05/05 10:38:39;;;;;;;4.38;2.35;;;16.60;57.30;;;;;;6351486;28;20233;-66
2022/05/05 10:41:45;;;;;;;5.65;2.53;;;16.60;55.30;;;;;;6351038;28;20210;-66
2022/05/05 10:45:17;;;;;;;4.32;2.47;;;16.70;55.70;;;;;;6350876;28;20229;-65
2022/05/05 10:48:35;;;;;;;7.68;3.00;;;16.70;54.70;;;;;;6287582;28;20646;-66
2022/05/05 10:52:28;;;;;;;7.03;2.45;;;16.60;55.00;;;;;;6351051;28;20664;-66
2022/05/05 10:55:35;;;;;;;9.90;2.80;;;16.60;54.90;;;;;;6331763;28;20248;-66
2022/05/05 10:59:07;;;;;;;4.15;2.20;;;16.80;54.60;;;;;;6331116;28;20222;-66
2022/05/05 11:02:19;;;;;;;2.70;2.40;;;16.80;54.50;;;;;;6350032;28;20277;-65
2022/05/05 11:05:46;;;;;;;5.57;2.40;;;16.80;54.40;;;;;;6349634;28;20221;-66
2022/05/05 11:08:54;;;;;;;7.07;2.38;;;16.80;54.30;;;;;;6349832;28;20234;-66
2022/05/05 11:12:16;;;;;;;3.55;2.33;;;16.90;54.40;;;;;;6333819;28;20597;-65
2022/05/05 11:22:29;;;;;;;8.68;2.55;;;16.80;54.70;;;;;;6322898;28;20653;-66
2022/05/05 11:25:35;;;;;;;6.00;2.42;;;16.80;54.90;;;;;;6324155;28;20238;-66
2022/05/05 11:28:40;;;;;;;3.25;2.53;;;16.80;54.90;;;;;;6324306;28;20304;-66
2022/05/05 11:31:57;;;;;;;9.05;3.30;;;16.90;54.40;;;;;;6324566;28;20636;-66
2022/05/05 11:35:04;;;;;;;9.07;2.55;;;17.10;54.70;;;;;;6323603;28;20226;-66
2022/05/05 11:38:12;;;;;;;3.53;2.40;;;17.10;54.00;;;;;;6324002;28;20231;-66
2022/05/05 11:41:19;;;;;;;6.90;2.75;;;17.20;53.90;;;;;;6323877;28;20202;-65
2022/05/05 11:44:25;;;;;;;7.88;2.47;;;17.20;54.80;;;;;;6338893;28;20570;-66
2022/05/05 11:47:30;;;;;;;9.15;2.63;;;17.20;54.20;;;;;;6323399;28;20202;-65
2022/05/05 11:50:44;;;;;;;4.45;2.45;;;17.20;53.90;;;;;;6323495;28;20245;-65
2022/05/05 11:53:59;;;;;;;8.40;2.63;;;17.10;53.90;;;;;;6323110;28;20236;-66
2022/05/05 11:57:06;;;;;;;2.88;2.47;;;17.20;54.20;;;;;;6324175;28;20209;-65
2022/05/05 12:03:36;;;;;;;4.30;2.72;;;17.40;53.60;;;;;;6322791;28;20555;-66
2022/05/05 12:06:41;;;;;;;6.30;2.30;;;17.60;53.00;;;;;;6323683;28;20213;-66
2022/05/05 12:09:48;;;;;;;4.20;2.42;;;17.60;53.70;;;;;;6323286;28;20237;-65
2022/05/05 12:12:54;;;;;;;3.22;2.40;;;17.50;52.70;;;;;;6346665;28;20212;-66
2022/05/05 12:16:02;;;;;;;9.55;2.70;;;17.50;52.80;;;;;;6348880;28;20225;-66
2022/05/05 12:19:15;;;;;;;15.80;2.60;;;17.60;52.80;;;;;;6348462;28;20226;-67
2022/05/05 12:22:42;;;;;;;3.58;2.60;;;17.70;52.20;;;;;;6348795;28;20209;-66
2022/05/05 12:25:49;;;;;;;10.63;2.80;;;17.90;52.30;;;;;;6348144;28;20216;-66
2022/05/05 12:28:56;;;;;;;3.65;2.50;;;18.10;52.10;;;;;;6348215;28;20260;-65
2022/05/05 12:32:01;;;;;;;9.27;2.90;;;18.10;51.50;;;;;;6348447;28;20537;-65
2022/05/05 12:35:14;;;;;;;5.38;2.33;;;18.10;51.30;;;;;;6347881;28;20229;-68
2022/05/05 12:38:20;;;;;;;9.52;2.33;;;18.10;52.30;;;;;;6347773;28;20728;-65
2022/05/05 12:41:27;;;;;;;5.97;2.63;;;18.10;51.80;;;;;;6347682;28;20212;-65
2022/05/05 12:44:33;;;;;;;3.95;2.50;;;18.20;51.50;;;;;;6347900;28;20238;-65
2022/05/05 12:47:42;;;;;;;7.72;2.60;;;18.20;51.50;;;;;;6347996;28;20197;-65
2022/05/05 12:50:48;;;;;;;4.03;2.20;;;18.30;51.40;;;;;;6346494;28;20210;-65
2022/05/05 13:00:42;;;;;;;5.68;2.50;;;18.20;52.50;;;;;;6347914;28;20246;-66
2022/05/05 13:04:12;;;;;;;7.18;2.30;;;18.20;51.80;;;;;;6347912;28;20237;-66
2022/05/05 13:07:19;;;;;;;12.13;2.75;;;18.20;52.90;;;;;;6348911;28;20544;-67
2022/05/05 13:10:24;;;;;;;13.85;2.70;;;18.20;52.90;;;;;;6345932;28;20237;-67
2022/05/05 13:13:31;;;;;;;6.47;2.58;;;18.20;52.90;;;;;;6324881;28;20237;-65
2022/05/05 13:16:36;;;;;;;6.82;2.50;;;18.20;52.80;;;;;;6333618;28;20244;-64
2022/05/05 13:19:42;;;;;;;12.02;2.63;;;18.50;52.80;;;;;;6333838;28;20240;-65
2022/05/05 13:22:47;;;;;;;4.50;2.20;;;18.60;52.30;;;;;;6325730;28;20205;-66
2022/05/05 13:25:53;;;;;;;6.03;2.50;;;18.70;51.80;;;;;;6321930;28;20206;-66
2022/05/05 13:29:00;;;;;;;7.82;2.92;;;18.70;51.30;;;;;;6322120;28;20229;-65
2022/05/05 13:32:07;;;;;;;6.53;2.60;;;18.80;51.10;;;;;;6321252;28;20222;-67
2022/05/05 13:35:13;;;;;;;3.28;2.28;;;18.90;51.10;;;;;;6321612;28;20245;-66
2022/05/05 13:38:19;;;;;;;7.95;2.53;;;19.00;50.80;;;;;;6321226;28;20229;-66
2022/05/05 13:41:24;;;;;;;5.90;2.80;;;19.00;50.80;;;;;;6322057;28;20210;-66
2022/05/05 13:44:31;;;;;;;6.80;2.58;;;19.10;50.30;;;;;;6322877;28;20235;-66
2022/05/05 13:47:36;;;;;;;10.95;2.53;;;18.70;50.70;;;;;;6343584;28;20221;-66
2022/05/05 13:50:43;;;;;;;3.90;2.40;;;18.60;51.10;;;;;;6329445;28;20403;-67
2022/05/05 13:53:50;;;;;;;10.68;2.63;;;18.80;51.00;;;;;;6329832;28;20230;-66
2022/05/05 13:56:55;;;;;;;3.17;2.22;;;19.00;50.70;;;;;;6330432;28;20226;-65
2022/05/05 14:00:02;;;;;;;5.15;2.60;;;19.10;50.10;;;;;;6328690;28;20244;-66
2022/05/05 14:03:17;;;;;;;12.00;2.92;;;19.20;50.00;;;;;;6327866;28;20252;-66
2022/05/05 14:06:22;;;;;;;6.78;2.30;;;18.90;50.20;;;;;;6327843;28;20202;-66
2022/05/05 14:12:50;;;;;;;3.13;2.83;;;18.70;50.40;;;;;;6349230;28;20261;-66
2022/05/05 14:15:57;;;;;;;9.60;2.60;;;18.50;50.80;;;;;;6351085;28;20218;-66
2022/05/05 14:19:02;;;;;;;9.02;2.65;;;18.50;50.90;;;;;;6332187;28;20236;-66
2022/05/05 14:22:09;;;;;;;6.65;3.15;;;18.50;50.80;;;;;;6351832;28;20206;-65
2022/05/05 14:25:14;;;;;;;9.63;3.05;;;18.50;50.60;;;;;;6350791;28;20233;-65
2022/05/05 14:28:20;;;;;;;5.85;2.85;;;18.40;50.60;;;;;;6350659;28;20234;-67
2022/05/05 14:31:30;;;;;;;8.95;2.60;;;18.40;50.60;;;;;;6351574;28;20213;-66
2022/05/05 14:34:36;;;;;;;5.43;2.50;;;18.30;50.70;;;;;;6350843;28;20229;-66
2022/05/05 14:37:41;;;;;;;7.57;2.20;;;18.30;50.90;;;;;;6350639;28;20224;-66
2022/05/05 14:40:47;;;;;;;8.57;2.47;;;18.30;51.10;;;;;;6324868;28;20286;-67
2022/05/05 14:43:52;;;;;;;9.48;2.45;;;18.20;50.80;;;;;;6325261;27;20233;-66
2022/05/05 14:46:59;;;;;;;9.07;2.45;;;18.10;51.00;;;;;;6325980;28;20207;-67
2022/05/05 14:50:06;;;;;;;18.38;2.42;;;18.10;51.00;;;;;;6325210;28;20234;-66
2022/05/05 14:53:15;;;;;;;4.20;2.45;;;18.20;50.70;;;;;;6324993;28;20222;-68
2022/05/05 14:56:20;;;;;;;12.57;2.53;;;18.30;50.20;;;;;;6324437;28;20233;-67
2022/05/05 14:59:26;;;;;;;4.57;2.47;;;18.20;50.00;;;;;;6325107;28;20235;-67
2022/05/05 15:02:32;;;;;;;3.17;2.20;;;18.20;49.70;;;;;;6325521;28;20228;-67
2022/05/05 15:05:38;;;;;;;7.68;2.20;;;18.30;49.80;;;;;;6324746;28;20234;-66
2022/05/05 15:08:43;;;;;;;4.70;2.58;;;18.20;49.40;;;;;;6324926;28;20317;-66
2022/05/05 15:11:49;;;;;;;2.20;2.10;;;18.20;49.20;;;;;;6310792;28;20633;-66
2022/05/05 15:14:54;;;;;;;4.45;2.25;;;18.20;49.10;;;;;;6299525;28;20341;-67
2022/05/05 15:18:01;;;;;;;11.35;2.13;;;18.20;49.00;;;;;;6299468;28;20231;-66
2022/05/05 15:21:07;;;;;;;2.30;2.20;;;18.20;48.90;;;;;;6300130;28;20203;-67
2022/05/05 15:24:13;;;;;;;8.45;2.63;;;18.20;48.90;;;;;;6299196;28;20248;-66
2022/05/05 15:27:18;;;;;;;4.68;2.65;;;18.10;49.40;;;;;;6299648;28;20219;-67
2022/05/05 15:30:23;;;;;;;7.85;2.83;;;18.20;49.40;;;;;;6299019;28;20270;-67
2022/05/05 15:33:30;;;;;;;5.18;2.50;;;18.10;49.50;;;;;;6297268;28;20231;-67
2022/05/05 15:36:35;;;;;;;12.40;2.47;;;18.10;49.50;;;;;;6299381;28;20223;-66
2022/05/05 15:39:41;;;;;;;3.15;2.67;;;18.00;49.50;;;;;;6298515;28;20245;-66
2022/05/05 15:42:48;;;;;;;14.15;2.35;;;17.90;49.20;;;;;;6298422;28;20203;-68
2022/05/05 15:45:55;;;;;;;8.52;2.78;;;17.80;49.60;;;;;;6299013;28;20203;-67
2022/05/05 15:49:02;;;;;;;2.72;2.53;;;17.90;49.70;;;;;;6298474;28;20239;-67
2022/05/05 15:52:09;;;;;;;5.90;2.30;;;17.70;49.90;;;;;;6299332;28;20207;-66
2022/05/05 15:55:18;;;;;;;5.15;2.55;;;17.50;50.30;;;;;;6296986;28;20230;-66
2022/05/05 15:58:23;;;;;;;5.80;2.35;;;17.40;50.40;;;;;;6298150;28;20306;-67
2022/05/05 16:01:29;;;;;;;8.90;2.67;;;17.30;50.60;;;;;;6298433;28;20238;-67
2022/05/05 16:04:37;;;;;;;7.15;2.70;;;17.40;51.00;;;;;;6297831;28;20230;-66
2022/05/05 16:07:43;;;;;;;2.80;2.55;;;17.40;51.20;;;;;;6298175;28;20204;-67
2022/05/05 16:10:48;;;;;;;7.60;2.30;;;17.40;50.90;;;;;;6303506;28;20246;-67
2022/05/05 16:13:54;;;;;;;4.93;2.10;;;17.30;51.10;;;;;;6323305;27;20239;-66
2022/05/05 16:16:59;;;;;;;3.55;2.33;;;17.40;51.00;;;;;;6323287;28;20586;-66
2022/05/05 16:20:09;;;;;;;13.07;5.50;;;17.30;51.30;;;;;;6322947;28;20231;-65
2022/05/05 16:23:15;;;;;;;14.00;7.45;;;17.30;51.80;;;;;;6322800;28;20222;-65
2022/05/05 16:33:07;;;;;;;7.82;2.92;;;17.20;52.20;;;;;;6322928;28;20608;-66
2022/05/05 16:36:14;;;;;;;13.35;2.75;;;17.10;52.70;;;;;;6323367;28;20207;-66
2022/05/05 16:39:19;;;;;;;3.92;2.20;;;17.10;52.90;;;;;;6322627;28;20595;-68
2022/05/05 16:42:24;;;;;;;10.98;2.80;;;17.10;52.90;;;;;;6323144;28;20202;-66
2022/05/05 16:45:31;;;;;;;9.25;3.17;;;17.10;52.90;;;;;;6322908;27;20301;-68
2022/05/05 16:48:37;;;;;;;6.63;2.40;;;17.10;53.00;;;;;;6322361;28;20258;-68
2022/05/05 16:51:50;;;;;;;12.70;2.97;;;17.00;53.30;;;;;;6321474;28;20684;-67
2022/05/05 16:54:56;;;;;;;4.20;2.58;;;16.90;53.50;;;;;;6322100;27;20605;-68
2022/05/05 16:58:01;;;;;;;13.02;2.97;;;16.80;53.90;;;;;;6322263;27;20589;-67
2022/05/05 17:01:09;;;;;;;3.53;2.72;;;16.70;54.20;;;;;;6322898;28;20241;-68
2022/05/05 17:04:14;;;;;;;7.47;2.70;;;16.70;54.40;;;;;;6321950;28;20604;-67
2022/05/05 17:07:25;;;;;;;3.95;2.30;;;16.70;54.80;;;;;;6322935;28;20202;-67
2022/05/05 17:10:31;;;;;;;3.15;2.40;;;16.70;54.60;;;;;;6318851;28;20226;-68
2022/05/05 17:13:37;;;;;;;3.45;2.20;;;16.70;55.10;;;;;;6297415;28;20231;-67
2022/05/05 17:16:42;;;;;;;2.80;2.28;;;16.70;55.00;;;;;;6297797;28;20221;-68
2022/05/05 17:19:48;;;;;;;4.50;2.35;;;16.70;55.00;;;;;;6296316;28;20234;-67
2022/05/05 17:22:55;;;;;;;5.50;2.00;;;16.60;55.50;;;;;;6297180;28;20213;-67